createdAt,value
2023-05-04T00:00:35.416Z,97442.22
2023-05-04T00:03:21.008Z,97439.22
2023-05-04T00:06:06.138Z,97431.59
2023-05-04T00:08:51.849Z,97438.44
2023-05-04T00:11:36.736Z,97438.69
2023-05-04T00:14:22.134Z,97432.69
2023-05-04T00:17:08.806Z,97430.25
2023-05-04T00:19:53.884Z,97435.38
2023-05-04T00:22:39.019Z,97431.56
2023-05-04T00:25:24.306Z,97434.31
2023-05-04T00:28:09.739Z,97434.91
2023-05-04T00:30:55.191Z,97432.69
2023-05-04T00:33:40.527Z,97429.16
2023-05-04T00:36:25.900Z,97419.34
2023-05-04T00:39:11.421Z,97423.38
2023-05-04T00:41:56.693Z,97426.41
2023-05-04T00:44:42.052Z,97418.81
2023-05-04T00:47:27.601Z,97425.09
2023-05-04T00:50:12.975Z,97417.19
2023-05-04T00:52:58.269Z,97414.72
2023-05-04T00:55:43.702Z,97417.44
2023-05-04T00:58:29.090Z,97407.09
2023-05-04T01:01:15.822Z,97413.06
2023-05-04T01:04:01.030Z,97410.34
2023-05-04T01:06:46.206Z,97409.81
2023-05-04T01:09:31.677Z,97408.44
2023-05-04T01:12:16.791Z,97413.09
2023-05-04T01:15:02.222Z,97413.34
2023-05-04T01:17:47.602Z,97411.69
2023-05-04T01:20:32.895Z,97410.88
2023-05-04T01:23:18.482Z,97409.81
2023-05-04T01:26:03.645Z,97408.47
2023-05-04T01:28:48.925Z,97412.28
2023-05-04T01:31:34.440Z,97416.34
2023-05-04T01:34:19.700Z,97417.44
2023-05-04T01:37:05.221Z,97409.53
2023-05-04T01:39:50.405Z,97417.97
2023-05-04T01:42:35.687Z,97416.63
2023-05-04T01:45:20.781Z,97417.75
2023-05-04T01:48:06.253Z,97422.09
2023-05-04T01:50:52.632Z,97421.81
2023-05-04T01:53:37.966Z,97420.69
2023-05-04T01:56:23.588Z,97429.97
2023-05-04T01:59:08.962Z,97426.16
2023-05-04T02:01:54.418Z,97431.34
2023-05-04T02:04:39.606Z,97437.03
2023-05-04T02:07:24.962Z,97434.91
2023-05-04T02:10:10.224Z,97437.91
2023-05-04T02:12:55.456Z,97440.84
2023-05-04T02:15:40.888Z,97443.06
2023-05-04T02:18:27.322Z,97437.63
2023-05-04T02:21:12.576Z,97438.72
2023-05-04T02:23:57.406Z,97435.41
2023-05-04T02:26:42.911Z,97440.63
2023-05-04T02:29:28.031Z,97440.63
2023-05-04T02:32:13.313Z,97441.16
2023-05-04T02:34:58.856Z,97441.97
2023-05-04T02:37:44.168Z,97441.94
2023-05-04T02:40:29.287Z,97442.78
2023-05-04T02:43:14.229Z,97444.69
2023-05-04T02:45:59.640Z,97449.31
2023-05-04T02:48:44.991Z,97452.56
2023-05-04T02:51:30.290Z,97451.78
2023-05-04T02:54:15.664Z,97447.69
2023-05-04T02:57:01.218Z,97454.19
2023-05-04T02:59:46.413Z,97449.03
2023-05-04T03:02:31.229Z,97449.88
2023-05-04T03:05:16.559Z,97450.41
2023-05-04T03:08:01.879Z,97441.16
2023-05-04T03:10:47.313Z,97443.59
2023-05-04T03:13:32.718Z,97440.34
2023-05-04T03:16:18.082Z,97442.50
2023-05-04T03:19:03.470Z,97443.31
2023-05-04T03:21:48.947Z,97438.69
2023-05-04T03:24:34.240Z,97438.97
2023-05-04T03:27:19.700Z,97426.72
2023-05-04T03:30:05.163Z,97436.25
2023-05-04T03:32:50.467Z,97437.59
2023-05-04T03:35:35.876Z,97436.00
2023-05-04T03:38:21.167Z,97443.88
2023-05-04T03:41:06.705Z,97447.41
2023-05-04T03:43:51.947Z,97446.59
2023-05-04T03:46:37.137Z,97442.28
2023-05-04T03:49:22.487Z,97452.06
2023-05-04T03:52:07.538Z,97450.13
2023-05-04T03:54:52.978Z,97451.22
2023-05-04T03:57:38.202Z,97460.22
2023-05-04T04:00:23.611Z,97455.03
2023-05-04T04:03:09.367Z,97459.41
2023-05-04T04:05:54.607Z,97456.09
2023-05-04T04:08:39.979Z,97450.44
2023-05-04T04:11:25.371Z,97451.47
2023-05-04T04:14:10.810Z,97453.94
2023-05-04T04:16:56.114Z,97458.84
2023-05-04T04:22:26.142Z,97465.94
2023-05-04T04:25:11.428Z,97468.41
2023-05-04T04:27:56.802Z,97462.66
2023-05-04T04:30:42.032Z,97459.94
2023-05-04T04:33:27.366Z,97454.75
2023-05-04T04:36:12.587Z,97458.28
2023-05-04T04:38:58.053Z,97458.84
2023-05-04T04:41:43.468Z,97462.38
2023-05-04T04:44:28.716Z,97463.75
2023-05-04T04:47:14.141Z,97461.56
2023-05-04T04:49:59.337Z,97464.28
2023-05-04T04:52:44.844Z,97463.75
2023-05-04T04:55:30.126Z,97468.09
2023-05-04T04:58:15.354Z,97472.72
2023-05-04T05:01:00.522Z,97474.38
2023-05-04T05:03:45.945Z,97477.34
2023-05-04T05:06:31.413Z,97480.63
2023-05-04T05:09:16.772Z,97483.91
2023-05-04T05:12:02.113Z,97486.06
2023-05-04T05:14:47.336Z,97488.25
2023-05-04T05:17:32.615Z,97484.41
2023-05-04T05:20:17.720Z,97488.78
2023-05-04T05:23:03.032Z,97483.03
2023-05-04T05:25:48.442Z,97492.59
2023-05-04T05:28:33.442Z,97493.69
2023-05-04T05:31:19.034Z,97492.28
2023-05-04T05:34:04.385Z,97500.22
2023-05-04T05:36:49.720Z,97499.13
2023-05-04T05:39:35.041Z,97499.41
2023-05-04T05:42:20.093Z,97496.94
2023-05-04T05:45:05.581Z,97495.31
2023-05-04T05:47:50.981Z,97491.50
2023-05-04T05:50:36.140Z,97494.78
2023-05-04T05:53:21.531Z,97493.69
2023-05-04T05:56:06.680Z,97491.25
2023-05-04T05:58:52.924Z,97495.88
2023-05-04T06:01:42.001Z,97493.13
2023-05-04T06:04:28.741Z,97494.78
2023-05-04T06:07:14.479Z,97504.00
2023-05-04T06:09:59.867Z,97498.31
2023-05-04T06:12:44.785Z,97495.31
2023-05-04T06:15:30.199Z,97492.06
2023-05-04T06:18:15.962Z,97508.66
2023-05-04T06:21:01.386Z,97504.59
2023-05-04T06:23:46.826Z,97487.72
2023-05-04T06:26:33.073Z,97496.41
2023-05-04T06:29:19.088Z,97499.16
2023-05-04T06:32:04.487Z,97494.81
2023-05-04T06:34:49.695Z,97498.84
2023-05-04T06:37:35.146Z,97492.59
2023-05-04T06:40:19.990Z,97484.44
2023-05-04T06:43:05.438Z,97483.91
2023-05-04T06:45:50.739Z,97487.72
2023-05-04T06:48:36.032Z,97483.09
2023-05-04T06:51:21.334Z,97481.44
2023-05-04T06:54:06.873Z,97490.16
2023-05-04T06:56:52.429Z,97480.09
2023-05-04T06:59:37.760Z,97479.00
2023-05-04T07:02:23.219Z,97481.41
2023-05-04T07:05:08.443Z,97484.16
2023-05-04T07:07:53.792Z,97480.91
2023-05-04T07:10:39.163Z,97474.91
2023-05-04T07:13:24.518Z,97475.75
2023-05-04T07:16:09.663Z,97482.00
2023-05-04T07:18:54.949Z,97481.47
2023-05-04T07:21:40.223Z,97477.88
2023-05-04T07:24:25.540Z,97471.38
2023-05-04T07:27:10.778Z,97474.63
2023-05-04T07:29:56.149Z,97476.78
2023-05-04T07:32:41.641Z,97475.72
2023-05-04T07:35:27.025Z,97471.09
2023-05-04T07:38:12.443Z,97469.47
2023-05-04T07:40:57.792Z,97471.66
2023-05-04T07:43:43.249Z,97471.94
2023-05-04T07:46:28.643Z,97463.75
2023-05-04T07:49:13.937Z,97462.13
2023-05-04T07:51:59.361Z,97462.41
2023-05-04T07:54:46.020Z,97460.75
2023-05-04T07:57:31.445Z,97466.19
2023-05-04T08:00:16.673Z,97469.19
2023-05-04T08:03:12.251Z,97465.66
2023-05-04T08:06:03.483Z,97465.38
2023-05-04T08:08:49.529Z,97465.66
2023-05-04T08:11:36.105Z,97467.59
2023-05-04T08:14:21.264Z,97469.19
2023-05-04T08:17:06.628Z,97463.47
2023-05-04T08:19:51.940Z,97469.22
2023-05-04T08:22:37.310Z,97471.09
2023-05-04T08:25:22.124Z,97472.19
2023-05-04T08:28:07.526Z,97465.94
2023-05-04T08:30:52.872Z,97465.06
2023-05-04T08:33:38.269Z,97467.28
2023-05-04T08:36:23.719Z,97460.75
2023-05-04T08:39:08.804Z,97469.47
2023-05-04T08:41:54.298Z,97470.31
2023-05-04T08:44:40.308Z,97465.66
2023-05-04T08:47:26.044Z,97465.09
2023-05-04T08:50:11.425Z,97469.47
2023-05-04T08:52:56.522Z,97467.59
2023-05-04T08:55:41.951Z,97464.28
2023-05-04T08:58:27.358Z,97468.09
2023-05-04T09:01:12.737Z,97467.28
2023-05-04T09:03:58.080Z,97461.84
2023-05-04T09:06:43.481Z,97463.47
2023-05-04T09:09:28.970Z,97426.16
2023-05-04T09:12:14.438Z,97431.91
2023-05-04T09:14:59.760Z,97426.16
2023-05-04T09:17:56.978Z,97423.72
2023-05-04T09:20:42.728Z,97420.19
2023-05-04T09:23:27.840Z,97425.91
2023-05-04T09:26:13.097Z,97422.34
2023-05-04T09:28:58.629Z,97421.28
2023-05-04T09:31:43.926Z,97419.66
2023-05-04T09:34:29.142Z,97418.81
2023-05-04T09:37:14.457Z,97420.75
2023-05-04T09:39:59.731Z,97414.47
2023-05-04T09:42:45.283Z,97416.94
2023-05-04T09:45:30.672Z,97420.72
2023-05-04T09:48:16.091Z,97424.56
2023-05-04T09:51:01.225Z,97419.09
2023-05-04T09:53:46.505Z,97418.56
2023-05-04T09:56:31.995Z,97419.38
2023-05-04T09:59:17.324Z,97412.56
2023-05-04T10:02:14.425Z,97418.59
2023-05-04T10:05:08.177Z,97444.69
2023-05-04T10:07:53.420Z,97450.66
2023-05-04T10:10:38.833Z,97447.69
2023-05-04T10:13:24.164Z,97445.50
2023-05-04T10:16:09.507Z,97439.53
2023-05-04T10:18:54.947Z,97441.97
2023-05-04T10:21:40.267Z,97438.72
2023-05-04T10:24:25.529Z,97439.53
2023-05-04T10:27:10.713Z,97443.06
2023-05-04T10:29:56.119Z,97438.97
2023-05-04T10:32:41.497Z,97428.34
2023-05-04T10:35:26.936Z,97433.25
2023-05-04T10:38:12.293Z,97431.06
2023-05-04T10:40:57.783Z,97432.47
2023-05-04T10:43:42.993Z,97421.50
2023-05-04T10:46:28.237Z,97421.28
2023-05-04T10:49:13.537Z,97417.19
2023-05-04T10:51:58.549Z,97416.91
2023-05-04T10:54:43.978Z,97417.75
2023-05-04T10:57:29.393Z,97412.03
2023-05-04T11:00:14.690Z,97407.59
2023-05-04T11:02:59.982Z,97403.03
2023-05-04T11:05:45.352Z,97400.84
2023-05-04T11:08:30.181Z,97397.56
2023-05-04T11:11:15.804Z,97398.09
2023-05-04T11:14:00.660Z,97390.25
2023-05-04T11:16:45.763Z,97381.78
2023-05-04T11:19:30.814Z,97388.59
2023-05-04T11:22:15.806Z,97378.00
2023-05-04T11:25:01.236Z,97376.34
2023-05-04T11:27:46.641Z,97370.84
2023-05-04T11:30:32.640Z,97366.19
2023-05-04T11:33:17.867Z,97362.63
2023-05-04T11:36:03.296Z,97361.56
2023-05-04T11:38:48.545Z,97357.78
2023-05-04T11:41:33.640Z,97362.69
2023-05-04T11:44:18.948Z,97352.38
2023-05-04T11:47:04.382Z,97361.59
2023-05-04T11:49:49.783Z,97356.97
2023-05-04T11:52:35.061Z,97350.63
2023-05-04T11:55:20.483Z,97351.56
2023-05-04T11:58:05.824Z,97355.56
2023-05-04T12:00:51.141Z,97352.31
2023-05-04T12:03:52.345Z,97351.91
2023-05-04T12:06:38.929Z,97345.13
2023-05-04T12:09:24.440Z,97337.75
2023-05-04T12:12:09.540Z,97335.59
2023-05-04T12:14:55.000Z,97337.41
2023-05-04T12:17:40.495Z,97333.09
2023-05-04T12:20:25.856Z,97320.56
2023-05-04T12:23:11.301Z,97318.88
2023-05-04T12:25:58.521Z,97310.66
2023-05-04T12:28:43.699Z,97329.00
2023-05-04T12:31:29.195Z,97319.72
2023-05-04T12:34:14.439Z,97314.47
2023-05-04T12:36:59.772Z,97314.75
2023-05-04T12:39:45.077Z,97311.50
2023-05-04T12:42:30.468Z,97304.19
2023-05-04T12:45:15.943Z,97295.31
2023-05-04T12:48:01.424Z,97295.56
2023-05-04T12:50:46.806Z,97293.53
2023-05-04T12:53:31.798Z,97294.03
2023-05-04T12:56:17.177Z,97283.25
2023-05-04T12:59:02.728Z,97281.81
2023-05-04T13:01:48.137Z,97276.28
2023-05-04T13:04:33.632Z,97276.59
2023-05-04T13:07:18.866Z,97276.59
2023-05-04T13:10:04.381Z,97271.13
2023-05-04T13:12:49.783Z,97264.28
2023-05-04T13:15:35.192Z,97269.72
2023-05-04T13:18:20.484Z,97267.63
2023-05-04T13:21:05.713Z,97255.91
2023-05-04T13:23:51.155Z,97260.31
2023-05-04T13:26:36.580Z,97261.88
2023-05-04T13:29:21.850Z,97258.53
2023-05-04T13:32:07.261Z,97246.38
2023-05-04T13:34:52.645Z,97242.53
2023-05-04T13:37:37.961Z,97243.41
2023-05-04T13:40:23.408Z,97227.56
2023-05-04T13:43:09.006Z,97226.53
2023-05-04T13:45:54.397Z,97223.66
2023-05-04T13:48:39.718Z,97225.31
2023-05-04T13:51:25.113Z,97225.44
2023-05-04T13:54:10.392Z,97215.03
2023-05-04T13:56:55.621Z,97207.97
2023-05-04T13:59:43.090Z,97209.03
2023-05-04T14:02:31.794Z,97204.19
2023-05-04T14:05:17.215Z,97206.09
2023-05-04T14:08:02.458Z,97206.47
2023-05-04T14:10:47.919Z,97206.44
2023-05-04T14:13:33.447Z,97206.22
2023-05-04T14:16:18.868Z,97200.50
2023-05-04T14:19:04.208Z,97195.16
2023-05-04T14:21:49.606Z,97193.31
2023-05-04T14:24:34.985Z,97192.28
2023-05-04T14:27:20.568Z,97191.31
2023-05-04T14:30:05.493Z,97190.63
2023-05-04T14:32:50.906Z,97180.63
2023-05-04T14:35:36.065Z,97179.19
2023-05-04T14:38:21.155Z,97168.47
2023-05-04T14:41:06.488Z,97171.53
2023-05-04T14:43:51.885Z,97165.47
2023-05-04T14:46:37.242Z,97166.78
2023-05-04T14:49:35.961Z,97161.53
2023-05-04T14:52:22.464Z,97163.06
2023-05-04T14:55:07.868Z,97169.78
2023-05-04T14:57:53.080Z,97160.63
2023-05-04T15:00:38.324Z,97154.19
2023-05-04T15:03:23.849Z,97153.84
2023-05-04T15:06:11.524Z,97158.03
2023-05-04T15:08:56.571Z,97154.44
2023-05-04T15:11:41.933Z,97166.38
2023-05-04T15:14:27.281Z,97157.25
2023-05-04T15:17:12.685Z,97160.19
2023-05-04T15:19:58.056Z,97156.22
2023-05-04T15:22:43.499Z,97153.47
2023-05-04T15:25:28.814Z,97152.31
2023-05-04T15:28:14.338Z,97157.03
2023-05-04T15:30:59.736Z,97155.59
2023-05-04T15:33:45.196Z,97153.84
2023-05-04T15:36:30.589Z,97153.16
2023-05-04T15:39:16.054Z,97154.03
2023-05-04T15:42:01.393Z,97153.06
2023-05-04T15:44:46.772Z,97159.72
2023-05-04T15:47:32.340Z,97155.25
2023-05-04T15:50:17.599Z,97151.88
2023-05-04T15:53:02.925Z,97154.81
2023-05-04T15:55:48.187Z,97148.13
2023-05-04T15:58:33.639Z,97158.97
2023-05-04T16:01:19.300Z,97140.09
2023-05-04T16:04:04.244Z,97146.81
2023-05-04T16:06:49.634Z,97145.41
2023-05-04T16:09:34.833Z,97155.09
2023-05-04T16:12:20.313Z,97158.16
2023-05-04T16:15:05.619Z,97153.84
2023-05-04T16:17:50.929Z,97163.38
2023-05-04T16:20:36.300Z,97162.16
2023-05-04T16:23:21.503Z,97154.94
2023-05-04T16:26:06.774Z,97158.75
2023-05-04T16:28:52.046Z,97155.59
2023-05-04T16:31:37.568Z,97157.03
2023-05-04T16:34:22.784Z,97160.28
2023-05-04T16:37:10.901Z,97156.09
2023-05-04T16:39:56.573Z,97155.16
2023-05-04T16:42:42.172Z,97150.50
2023-05-04T16:45:27.589Z,97151.19
2023-05-04T16:48:13.973Z,97154.88
2023-05-04T16:50:59.146Z,97146.31
2023-05-04T16:53:44.656Z,97151.66
2023-05-04T16:56:29.823Z,97155.22
2023-05-04T16:59:18.440Z,97158.50
2023-05-04T17:02:03.941Z,97158.66
2023-05-04T17:04:49.169Z,97158.91
2023-05-04T17:07:34.560Z,97162.97
2023-05-04T17:10:20.008Z,97164.06
2023-05-04T17:13:06.514Z,97161.91
2023-05-04T17:15:51.989Z,97163.31
2023-05-04T17:18:37.291Z,97162.75
2023-05-04T17:21:22.569Z,97165.50
2023-05-04T17:24:08.240Z,97172.25
2023-05-04T17:26:53.561Z,97173.81
2023-05-04T17:29:38.887Z,97176.03
2023-05-04T17:32:24.241Z,97181.03
2023-05-04T17:35:21.163Z,97173.75
2023-05-04T17:38:11.349Z,97176.31
2023-05-04T17:40:56.833Z,97179.31
2023-05-04T17:43:42.240Z,97174.63
2023-05-04T17:46:27.822Z,97179.56
2023-05-04T17:49:13.100Z,97187.81
2023-05-04T17:51:58.360Z,97195.97
2023-05-04T17:54:43.726Z,97193.00
2023-05-04T17:57:28.988Z,97198.69
2023-05-04T18:00:14.369Z,97198.94
2023-05-04T18:02:59.837Z,97202.44
2023-05-04T18:05:44.905Z,97201.16
2023-05-04T18:08:30.353Z,97209.38
2023-05-04T18:11:15.566Z,97218.53
2023-05-04T18:14:00.994Z,97210.72
2023-05-04T18:16:46.407Z,97222.69
2023-05-04T18:19:31.384Z,97219.13
2023-05-04T18:22:16.294Z,97217.03
2023-05-04T18:25:01.804Z,97223.84
2023-05-04T18:27:47.294Z,97227.31
2023-05-04T18:30:32.769Z,97224.84
2023-05-04T18:33:18.112Z,97233.59
2023-05-04T18:36:03.431Z,97240.91
2023-05-04T18:38:48.620Z,97249.91
2023-05-04T18:41:33.955Z,97241.16
2023-05-04T18:44:19.445Z,97247.44
2023-05-04T18:47:04.790Z,97252.94
2023-05-04T18:49:50.342Z,97254.31
2023-05-04T18:52:35.713Z,97249.88
2023-05-04T18:55:20.823Z,97264.38
2023-05-04T18:58:06.259Z,97270.88
2023-05-04T19:00:51.737Z,97277.19
2023-05-04T19:03:37.018Z,97275.81
2023-05-04T19:06:22.292Z,97274.97
2023-05-04T19:09:09.033Z,97280.97
2023-05-04T19:11:54.211Z,97283.97
2023-05-04T19:14:39.657Z,97282.34
2023-05-04T19:17:25.149Z,97295.44
2023-05-04T19:20:10.525Z,97300.16
2023-05-04T19:22:56.058Z,97292.19
2023-05-04T19:25:41.289Z,97297.66
2023-05-04T19:28:26.830Z,97296.28
2023-05-04T19:31:11.992Z,97311.28
2023-05-04T19:33:57.395Z,97309.38
2023-05-04T19:36:42.889Z,97317.59
2023-05-04T19:39:28.253Z,97314.81
2023-05-04T19:42:13.578Z,97319.97
2023-05-04T19:44:58.756Z,97325.69
2023-05-04T19:47:44.040Z,97330.03
2023-05-04T19:50:29.568Z,97324.63
2023-05-04T19:53:14.800Z,97328.13
2023-05-04T19:56:00.261Z,97328.41
2023-05-04T19:58:45.227Z,97336.06
2023-05-04T20:01:30.779Z,97334.97
2023-05-04T20:04:16.204Z,97346.69
2023-05-04T20:07:01.558Z,97345.34
2023-05-04T20:09:46.934Z,97340.94
2023-05-04T20:12:32.264Z,97355.19
2023-05-04T20:15:17.601Z,97353.75
2023-05-04T20:18:02.957Z,97361.41
2023-05-04T20:20:48.454Z,97356.25
2023-05-04T20:23:33.760Z,97368.22
2023-05-04T20:26:19.263Z,97363.81
2023-05-04T20:29:04.841Z,97372.03
2023-05-04T20:31:50.204Z,97366.56
2023-05-04T20:34:35.471Z,97367.94
2023-05-04T20:37:20.893Z,97367.09
2023-05-04T20:40:06.321Z,97360.81
2023-05-04T20:42:51.600Z,97366.88
2023-05-04T20:45:36.990Z,97376.66
2023-05-04T20:48:22.375Z,97372.28
2023-05-04T20:51:14.492Z,97375.84
2023-05-04T20:53:59.947Z,97376.16
2023-05-04T20:56:45.278Z,97375.88
2023-05-04T20:59:30.194Z,97366.06
2023-05-04T21:02:15.607Z,97376.97
2023-05-04T21:05:01.068Z,97384.84
2023-05-04T21:07:46.502Z,97386.81
2023-05-04T21:10:32.006Z,97384.31
2023-05-04T21:13:17.378Z,97386.75
2023-05-04T21:16:02.760Z,97384.84
2023-05-04T21:18:48.133Z,97381.31
2023-05-04T21:21:33.539Z,97383.75
2023-05-04T21:24:19.121Z,97386.47
2023-05-04T21:27:04.554Z,97386.47
2023-05-04T21:29:49.827Z,97384.63
2023-05-04T21:32:35.525Z,97394.72
2023-05-04T21:35:20.793Z,97402.06
2023-05-04T21:38:06.163Z,97402.38
2023-05-04T21:40:51.461Z,97399.34
2023-05-04T21:43:36.521Z,97406.16
2023-05-04T21:46:22.014Z,97399.88
2023-05-04T21:49:07.380Z,97394.13
2023-05-04T21:51:53.050Z,97403.97
2023-05-04T21:54:38.568Z,97402.59
2023-05-04T21:57:23.984Z,97411.34
2023-05-04T22:00:09.263Z,97407.22
2023-05-04T22:02:54.478Z,97398.22
2023-05-04T22:05:40.233Z,97398.28
2023-05-04T22:08:25.351Z,97392.81
2023-05-04T22:11:10.276Z,97401.53
2023-05-04T22:13:55.489Z,97402.59
2023-05-04T22:16:40.854Z,97408.34
2023-05-04T22:19:26.229Z,97414.59
2023-05-04T22:22:11.634Z,97415.47
2023-05-04T22:24:57.165Z,97411.66
2023-05-04T22:27:45.538Z,97417.13
2023-05-04T22:30:30.931Z,97420.91
2023-05-04T22:33:16.131Z,97425.25
2023-05-04T22:36:01.008Z,97430.16
2023-05-04T22:38:46.064Z,97438.34
2023-05-04T22:41:31.292Z,97437.50
2023-05-04T22:44:16.588Z,97437.81
2023-05-04T22:47:01.684Z,97436.97
2023-05-04T22:49:46.823Z,97436.41
2023-05-04T22:52:31.969Z,97441.63
2023-05-04T22:55:17.319Z,97441.38
2023-05-04T22:58:02.902Z,97442.44
2023-05-04T23:00:48.043Z,97442.16
2023-05-04T23:03:33.579Z,97442.97
2023-05-04T23:06:18.739Z,97443.78
2023-05-04T23:09:03.662Z,97451.13
2023-05-04T23:11:49.092Z,97448.41
2023-05-04T23:14:34.221Z,97437.22
2023-05-04T23:17:19.576Z,97441.03
2023-05-04T23:20:04.951Z,97445.19
2023-05-04T23:22:50.181Z,97440.81
2023-05-04T23:25:35.126Z,97438.03
2023-05-04T23:28:20.546Z,97437.75
2023-05-04T23:31:06.062Z,97442.19
2023-05-04T23:33:51.478Z,97442.44
2023-05-04T23:36:36.730Z,97442.97
2023-05-04T23:39:22.170Z,97426.66
2023-05-04T23:42:07.431Z,97434.78
2023-05-04T23:44:52.865Z,97432.59
2023-05-04T23:47:38.181Z,97437.25
2023-05-04T23:50:23.628Z,97427.44
2023-05-04T23:53:09.070Z,97439.16
2023-05-04T23:55:54.471Z,97432.38
2023-05-04T23:58:39.695Z,97429.88
